Time;durP1;ratioP1;P1;durP2;ratioP2;P2;SDS_P1;SDS_P2;PMS_P1;PMS_P2;Temp;Humidity;BMP_temperature;BMP_pressure;BME280_temperature;BME280_humidity;BME280_pressure;Samples;Min_cycle;Max_cycle;Signal;HPM_P1;HPM_P2
2022/03/31 00:00:07;;;;;;;2.97;0.90;;;4.00;99.90;;;;;;5108422;28;20071;-70
2022/03/31 00:02:33;;;;;;;6.60;0.88;;;3.90;99.90;;;;;;5109596;28;20048;-69
2022/03/31 00:04:59;;;;;;;8.15;1.40;;;3.90;99.90;;;;;;5111064;28;20051;-70
2022/03/31 00:07:24;;;;;;;6.88;0.80;;;3.90;99.90;;;;;;5108581;28;20457;-70
2022/03/31 00:09:50;;;;;;;4.38;1.23;;;3.80;99.90;;;;;;5110110;28;20047;-69
2022/03/31 00:12:16;;;;;;;6.93;1.00;;;3.80;99.90;;;;;;5109849;28;20047;-70
2022/03/31 00:14:41;;;;;;;5.93;0.95;;;3.80;99.90;;;;;;5126031;27;20490;-69
2022/03/31 00:17:07;;;;;;;4.15;0.95;;;3.80;99.90;;;;;;5113718;28;20043;-70
2022/03/31 00:19:33;;;;;;;6.43;0.90;;;3.80;99.90;;;;;;5130051;28;20075;-69
2022/03/31 00:21:58;;;;;;;4.85;0.80;;;3.80;99.90;;;;;;5130202;27;20090;-70
2022/03/31 00:24:24;;;;;;;5.15;0.90;;;3.70;99.90;;;;;;5130453;28;20043;-70
2022/03/31 00:26:49;;;;;;;6.80;1.45;;;3.70;99.90;;;;;;5132394;27;20046;-70
2022/03/31 00:29:15;;;;;;;5.18;0.80;;;3.70;99.90;;;;;;5134316;27;20047;-71
2022/03/31 00:31:41;;;;;;;5.35;0.95;;;3.70;99.90;;;;;;5115669;27;20047;-70
2022/03/31 00:34:07;;;;;;;3.15;0.82;;;3.60;99.90;;;;;;5133902;27;20050;-68
2022/03/31 00:36:32;;;;;;;6.65;1.20;;;3.60;99.90;;;;;;5135244;27;20041;-69
2022/03/31 00:41:42;;;;;;;8.60;1.02;;;3.60;99.90;;;;;;5134192;27;20095;-71
2022/03/31 00:44:08;;;;;;;6.90;1.15;;;3.60;99.90;;;;;;5135088;27;20555;-69
2022/03/31 00:46:34;;;;;;;5.97;0.85;;;3.50;99.90;;;;;;5134131;27;20047;-71
2022/03/31 00:49:01;;;;;;;10.82;1.50;;;3.50;99.90;;;;;;5115348;27;20390;-70
2022/03/31 00:51:31;;;;;;;4.90;0.90;;;3.50;99.90;;;;;;5133944;27;20078;-72
2022/03/31 00:53:57;;;;;;;4.40;1.00;;;3.50;99.90;;;;;;5134348;27;20062;-70
2022/03/31 00:56:24;;;;;;;8.93;1.00;;;3.40;99.90;;;;;;5134412;27;20390;-69
2022/03/31 00:58:51;;;;;;;4.78;1.10;;;3.40;99.90;;;;;;5134064;27;20050;-69
2022/03/31 01:01:18;;;;;;;9.05;1.30;;;3.40;99.90;;;;;;5115422;27;20047;-70
2022/03/31 01:03:44;;;;;;;3.05;0.90;;;3.40;99.90;;;;;;5133599;27;20104;-71
2022/03/31 01:06:09;;;;;;;4.18;0.90;;;3.40;99.90;;;;;;5134185;27;20054;-70
2022/03/31 01:08:35;;;;;;;4.93;0.93;;;3.40;99.90;;;;;;5115230;27;20449;-69
2022/03/31 01:11:01;;;;;;;6.82;0.90;;;3.40;99.90;;;;;;5133543;27;20478;-70
2022/03/31 01:13:26;;;;;;;7.20;1.40;;;3.90;99.90;;;;;;5134563;27;20064;-69
2022/03/31 01:15:52;;;;;;;8.82;1.23;;;3.30;99.90;;;;;;5133354;27;20390;-70
2022/03/31 01:18:18;;;;;;;5.45;0.90;;;3.40;99.90;;;;;;5133346;27;20088;-68
2022/03/31 01:20:43;;;;;;;4.78;0.80;;;3.40;99.90;;;;;;5114458;27;20050;-70
2022/03/31 01:23:17;;;;;;;2.88;1.00;;;3.40;99.90;;;;;;5114318;27;20059;-69
2022/03/31 01:25:43;;;;;;;6.40;0.90;;;3.40;99.90;;;;;;5134698;27;20050;-69
2022/03/31 01:28:10;;;;;;;4.63;1.00;;;3.40;99.90;;;;;;5115267;27;20474;-70
2022/03/31 01:30:36;;;;;;;4.20;0.80;;;3.40;99.90;;;;;;5133419;27;20039;-70
2022/03/31 01:33:01;;;;;;;5.97;0.85;;;3.40;99.90;;;;;;5133213;27;20671;-70
2022/03/31 01:35:27;;;;;;;5.07;0.82;;;3.40;99.90;;;;;;5138714;27;20034;-69
2022/03/31 01:37:53;;;;;;;2.83;0.85;;;3.40;99.90;;;;;;5153813;27;20038;-69
2022/03/31 01:40:18;;;;;;;4.72;0.88;;;3.40;99.90;;;;;;5135207;27;20102;-73
2022/03/31 01:42:45;;;;;;;2.58;0.70;;;3.40;99.90;;;;;;5151925;27;20121;-70
2022/03/31 01:45:19;;;;;;;3.95;0.98;;;3.30;99.90;;;;;;5153603;27;20073;-69
2022/03/31 01:47:46;;;;;;;4.15;0.98;;;3.40;99.90;;;;;;5134829;27;20042;-69
2022/03/31 01:50:12;;;;;;;3.13;0.80;;;3.30;99.90;;;;;;5153292;27;20043;-69
2022/03/31 01:52:38;;;;;;;5.57;1.00;;;3.30;99.90;;;;;;5151482;27;20167;-69
2022/03/31 01:55:05;;;;;;;1.80;0.75;;;3.30;99.90;;;;;;5153448;27;20035;-73
2022/03/31 01:57:31;;;;;;;4.65;0.88;;;3.30;99.90;;;;;;5153338;27;20505;-69
2022/03/31 01:59:56;;;;;;;3.15;0.80;;;3.30;99.90;;;;;;5151917;27;20034;-69
2022/03/31 02:02:23;;;;;;;4.53;1.00;;;3.30;99.90;;;;;;5147752;27;20516;-69
2022/03/31 02:04:48;;;;;;;5.00;1.00;;;3.30;99.90;;;;;;5153272;27;20042;-69
2022/03/31 02:07:14;;;;;;;1.95;0.80;;;3.30;99.90;;;;;;5144565;27;20367;-69
2022/03/31 02:09:41;;;;;;;4.25;0.90;;;3.30;99.90;;;;;;5132311;27;20047;-69
2022/03/31 02:12:07;;;;;;;7.78;0.93;;;3.30;99.90;;;;;;5108814;27;20053;-70
2022/03/31 02:14:37;;;;;;;3.35;1.00;;;3.30;99.90;;;;;;5135254;27;20050;-69
2022/03/31 02:17:06;;;;;;;3.05;1.20;;;3.30;99.90;;;;;;5137840;27;20490;-70
2022/03/31 02:19:33;;;;;;;5.07;1.27;;;3.30;99.90;;;;;;5134583;27;20401;-70
2022/03/31 02:21:59;;;;;;;3.08;1.50;;;3.30;99.90;;;;;;5132979;27;20512;-70
2022/03/31 02:24:24;;;;;;;6.03;2.15;;;3.30;99.90;;;;;;5113160;27;20032;-70
2022/03/31 02:26:51;;;;;;;6.43;2.40;;;3.30;99.90;;;;;;5131822;27;20530;-70
2022/03/31 02:29:18;;;;;;;4.63;2.72;;;3.30;99.90;;;;;;5131934;27;20085;-70
2022/03/31 02:31:46;;;;;;;7.35;3.30;;;3.30;99.90;;;;;;5131971;27;20050;-69
2022/03/31 02:34:12;;;;;;;6.18;2.95;;;3.30;99.90;;;;;;5132918;27;20046;-70
2022/03/31 02:36:40;;;;;;;8.40;3.15;;;3.30;99.90;;;;;;5133807;27;20051;-70
2022/03/31 02:39:06;;;;;;;5.03;3.08;;;3.30;99.90;;;;;;5129012;27;20470;-69
2022/03/31 02:41:32;;;;;;;6.18;3.35;;;3.40;99.90;;;;;;5117250;27;20053;-69
2022/03/31 02:43:58;;;;;;;8.63;3.25;;;3.40;99.90;;;;;;5150752;27;20133;-70
2022/03/31 02:46:25;;;;;;;7.45;4.00;;;3.40;99.90;;;;;;5133855;27;20043;-70
2022/03/31 02:48:52;;;;;;;8.80;4.10;;;3.40;99.90;;;;;;5152014;27;20089;-70
2022/03/31 02:51:18;;;;;;;6.93;4.15;;;3.40;99.90;;;;;;5133029;27;20076;-70
2022/03/31 02:56:28;;;;;;;7.82;4.40;;;4.30;99.90;;;;;;5152194;27;20119;-71
2022/03/31 02:58:54;;;;;;;10.10;4.40;;;3.40;99.90;;;;;;5133338;27;20055;-70
2022/03/31 03:01:20;;;;;;;11.30;4.72;;;3.30;99.90;;;;;;5151924;27;20371;-70
2022/03/31 03:03:45;;;;;;;9.35;4.20;;;3.30;99.90;;;;;;5131785;27;20042;-69
2022/03/31 03:06:11;;;;;;;6.30;4.43;;;3.30;99.90;;;;;;5152232;27;20046;-70
2022/03/31 03:08:37;;;;;;;10.95;6.30;;;3.30;99.90;;;;;;5151550;27;20050;-70
2022/03/31 03:11:03;;;;;;;10.63;6.40;;;3.30;99.90;;;;;;5132328;27;20046;-69
2022/03/31 03:13:29;;;;;;;10.40;7.22;;;3.30;99.90;;;;;;5151731;27;20038;-72
2022/03/31 03:15:54;;;;;;;16.95;7.80;;;3.30;99.90;;;;;;5148353;27;20042;-73
2022/03/31 03:18:20;;;;;;;14.40;8.32;;;3.30;99.90;;;;;;5132771;27;20370;-71
2022/03/31 03:20:46;;;;;;;10.30;7.03;;;3.20;99.90;;;;;;5133088;27;20454;-70
2022/03/31 03:23:12;;;;;;;9.65;6.85;;;3.20;99.90;;;;;;5150707;27;20082;-72
2022/03/31 03:25:37;;;;;;;10.30;6.63;;;3.20;99.90;;;;;;5149195;27;20077;-70
2022/03/31 03:28:04;;;;;;;8.52;6.10;;;3.30;99.90;;;;;;5151534;27;20039;-73
2022/03/31 03:30:29;;;;;;;11.52;5.47;;;3.20;99.90;;;;;;5151789;27;20050;-71
2022/03/31 03:32:55;;;;;;;7.45;5.60;;;3.20;99.90;;;;;;5133054;27;20053;-70
2022/03/31 03:35:21;;;;;;;8.48;5.60;;;3.20;99.90;;;;;;5150559;27;20047;-69
2022/03/31 03:37:47;;;;;;;7.30;4.47;;;3.20;99.90;;;;;;5132122;27;20046;-69
2022/03/31 03:40:15;;;;;;;8.32;4.68;;;3.20;99.90;;;;;;5145693;27;20481;-71
2022/03/31 03:42:41;;;;;;;6.68;4.30;;;3.20;99.90;;;;;;5151298;27;20049;-70
2022/03/31 03:45:09;;;;;;;5.78;3.22;;;3.20;99.90;;;;;;5150994;27;20042;-69
2022/03/31 03:47:34;;;;;;;8.27;3.90;;;3.20;99.90;;;;;;5149501;27;20446;-71
2022/03/31 03:50:00;;;;;;;4.25;2.60;;;4.10;99.90;;;;;;5151136;27;20122;-73
2022/03/31 03:52:26;;;;;;;6.38;2.90;;;3.20;99.90;;;;;;5151158;27;20400;-70
2022/03/31 03:54:52;;;;;;;3.17;1.80;;;3.10;99.90;;;;;;5151026;27;20047;-70
2022/03/31 03:57:17;;;;;;;2.30;1.40;;;3.00;99.90;;;;;;5148653;27;20046;-70
2022/03/31 03:59:43;;;;;;;2.95;1.50;;;2.90;99.90;;;;;;5151356;27;20122;-70
2022/03/31 04:02:09;;;;;;;2.45;1.70;;;2.90;99.90;;;;;;5152482;27;20480;-70
2022/03/31 04:04:35;;;;;;;3.25;1.65;;;2.90;99.90;;;;;;5155529;27;20042;-70
2022/03/31 04:07:01;;;;;;;2.58;1.73;;;2.90;99.90;;;;;;5155527;27;20050;-70
2022/03/31 04:09:26;;;;;;;3.65;1.98;;;2.90;99.90;;;;;;5125274;27;20085;-70
2022/03/31 04:11:52;;;;;;;5.28;2.90;;;2.90;99.90;;;;;;5134154;27;20139;-70
2022/03/31 04:14:18;;;;;;;10.38;3.97;;;2.90;99.90;;;;;;5115872;27;20141;-70
2022/03/31 04:16:44;;;;;;;7.70;3.72;;;2.80;99.90;;;;;;5134632;27;20051;-70
2022/03/31 04:19:10;;;;;;;6.47;4.55;;;2.80;99.90;;;;;;5136101;27;20051;-71
2022/03/31 04:21:36;;;;;;;7.30;4.93;;;2.80;99.90;;;;;;5116549;27;20072;-73
2022/03/31 04:24:03;;;;;;;7.60;4.10;;;2.80;99.90;;;;;;5134479;27;20039;-70
2022/03/31 04:26:29;;;;;;;6.30;4.35;;;2.80;99.90;;;;;;5116249;27;20199;-70
2022/03/31 04:28:55;;;;;;;6.28;4.53;;;2.70;99.90;;;;;;5116706;27;20122;-70
2022/03/31 04:31:20;;;;;;;4.75;3.40;;;2.70;99.90;;;;;;5134344;27;20515;-71
2022/03/31 04:33:46;;;;;;;6.35;3.63;;;2.70;99.90;;;;;;5134301;27;20043;-74
2022/03/31 04:36:12;;;;;;;4.97;3.45;;;2.70;99.90;;;;;;5141825;27;20042;-69
2022/03/31 04:38:38;;;;;;;5.35;3.13;;;2.60;99.90;;;;;;5154917;27;20034;-69
2022/03/31 04:41:03;;;;;;;4.22;2.75;;;2.60;99.90;;;;;;5153070;27;20042;-69
2022/03/31 04:43:29;;;;;;;3.72;2.53;;;2.60;99.90;;;;;;5136262;27;20117;-70
2022/03/31 04:45:55;;;;;;;4.55;2.85;;;2.50;99.90;;;;;;5154532;27;20537;-70
2022/03/31 04:48:20;;;;;;;5.05;2.80;;;2.50;99.90;;;;;;5135991;27;20054;-69
2022/03/31 04:50:46;;;;;;;3.20;2.10;;;2.50;99.90;;;;;;5152875;27;20043;-70
2022/03/31 04:53:12;;;;;;;5.95;2.65;;;2.50;99.90;;;;;;5136104;27;20058;-69
2022/03/31 04:55:38;;;;;;;4.57;2.53;;;2.50;99.90;;;;;;5155089;27;20046;-70
2022/03/31 04:58:04;;;;;;;4.40;2.38;;;2.40;99.90;;;;;;5154590;27;20791;-71
2022/03/31 05:00:31;;;;;;;5.00;2.30;;;2.40;99.90;;;;;;5134723;27;20086;-69
2022/03/31 05:02:59;;;;;;;5.80;2.28;;;2.40;99.90;;;;;;5143868;27;20587;-69
2022/03/31 05:05:25;;;;;;;4.47;2.25;;;2.30;99.90;;;;;;5133603;27;20050;-70
2022/03/31 05:07:51;;;;;;;4.50;2.50;;;2.30;99.90;;;;;;5116187;27;20477;-70
2022/03/31 05:10:17;;;;;;;5.60;2.35;;;2.40;99.90;;;;;;5137961;27;20031;-69
2022/03/31 05:12:43;;;;;;;4.97;2.20;;;2.30;99.90;;;;;;5152047;27;20042;-70
2022/03/31 05:15:09;;;;;;;3.72;2.30;;;2.30;99.90;;;;;;5153436;27;20429;-70
2022/03/31 05:17:35;;;;;;;5.70;2.33;;;2.30;99.90;;;;;;5154066;27;20387;-69
2022/03/31 05:20:09;;;;;;;5.18;2.65;;;2.30;99.90;;;;;;5154088;27;20057;-69
2022/03/31 05:22:39;;;;;;;4.10;2.35;;;2.20;99.90;;;;;;5152012;27;20435;-71
2022/03/31 05:25:10;;;;;;;4.53;2.42;;;2.20;99.90;;;;;;5135347;27;20126;-70
2022/03/31 05:27:43;;;;;;;4.28;2.72;;;2.20;99.90;;;;;;5135477;27;20050;-70
2022/03/31 05:30:10;;;;;;;5.22;2.40;;;2.20;99.90;;;;;;5153575;27;20054;-70
2022/03/31 05:32:36;;;;;;;5.43;3.08;;;2.30;99.90;;;;;;5152119;27;20078;-70
2022/03/31 05:35:02;;;;;;;6.00;2.88;;;2.20;99.90;;;;;;5153535;27;20468;-69
2022/03/31 05:37:28;;;;;;;4.43;2.78;;;2.20;99.90;;;;;;5153897;27;20050;-73
2022/03/31 05:39:53;;;;;;;5.88;2.75;;;2.30;99.90;;;;;;5130728;27;20039;-71
2022/03/31 05:42:19;;;;;;;7.93;3.35;;;2.30;99.90;;;;;;5132918;27;20086;-69
2022/03/31 05:44:45;;;;;;;6.60;3.00;;;2.30;99.90;;;;;;5133715;27;20058;-72
2022/03/31 05:47:10;;;;;;;8.48;3.30;;;2.30;99.90;;;;;;5138844;27;20782;-72
2022/03/31 05:49:36;;;;;;;4.25;3.15;;;2.30;99.90;;;;;;5134969;27;20062;-69
2022/03/31 05:52:02;;;;;;;5.40;3.33;;;2.30;99.90;;;;;;5153488;27;20130;-69
2022/03/31 05:54:28;;;;;;;4.65;3.40;;;2.40;99.90;;;;;;5152134;27;20042;-69
2022/03/31 05:56:54;;;;;;;8.80;3.78;;;2.40;99.90;;;;;;5135153;27;20058;-70
2022/03/31 05:59:19;;;;;;;4.85;3.50;;;2.40;99.90;;;;;;5134605;27;20054;-70
2022/03/31 06:01:45;;;;;;;6.03;4.03;;;2.40;99.90;;;;;;5151009;27;20179;-71
2022/03/31 06:04:11;;;;;;;5.82;3.65;;;2.40;99.90;;;;;;5151386;27;20766;-73
2022/03/31 06:06:36;;;;;;;5.53;3.60;;;2.50;99.90;;;;;;5134140;27;20046;-70
2022/03/31 06:09:02;;;;;;;6.32;3.60;;;2.50;99.90;;;;;;5132831;27;20121;-69
2022/03/31 06:11:28;;;;;;;6.13;3.80;;;2.50;99.90;;;;;;5134389;27;20058;-70
2022/03/31 06:13:54;;;;;;;6.75;4.07;;;3.10;99.90;;;;;;5133897;27;20058;-70
2022/03/31 06:16:20;;;;;;;5.22;3.40;;;2.60;99.90;;;;;;5150550;27;20119;-70
2022/03/31 06:18:45;;;;;;;6.90;3.90;;;2.60;99.90;;;;;;5117025;27;20100;-71
2022/03/31 06:21:11;;;;;;;5.20;4.20;;;2.60;99.90;;;;;;5152842;27;20053;-71
2022/03/31 06:23:37;;;;;;;5.18;3.92;;;2.60;99.90;;;;;;5133969;27;20057;-71
2022/03/31 06:26:03;;;;;;;5.47;4.15;;;2.60;99.90;;;;;;5131722;27;20057;-72
2022/03/31 06:28:31;;;;;;;4.93;3.78;;;2.60;99.90;;;;;;5152826;27;20046;-71
2022/03/31 06:30:57;;;;;;;5.55;4.13;;;2.60;99.90;;;;;;5151954;27;20447;-70
2022/03/31 06:33:23;;;;;;;5.75;4.68;;;2.70;99.90;;;;;;5149006;27;20051;-70
2022/03/31 06:35:49;;;;;;;5.97;4.68;;;2.70;99.90;;;;;;5140374;27;20047;-69
2022/03/31 06:38:15;;;;;;;6.15;4.90;;;2.70;99.90;;;;;;5133702;27;20050;-71
2022/03/31 06:40:41;;;;;;;6.82;5.35;;;2.70;99.90;;;;;;5152667;27;20056;-70
2022/03/31 06:43:07;;;;;;;6.85;5.20;;;2.70;99.90;;;;;;5126246;27;20138;-72
2022/03/31 06:45:34;;;;;;;6.55;4.93;;;2.70;99.90;;;;;;5131664;27;20050;-70
2022/03/31 06:48:01;;;;;;;5.80;4.53;;;2.70;99.90;;;;;;5113861;27;20051;-71
2022/03/31 06:50:29;;;;;;;5.40;4.40;;;2.70;99.90;;;;;;5113249;27;20101;-70
2022/03/31 06:52:56;;;;;;;5.80;4.30;;;2.70;99.90;;;;;;5131747;27;20480;-70
2022/03/31 06:55:22;;;;;;;5.47;4.50;;;2.80;99.90;;;;;;5148260;27;20545;-70
2022/03/31 06:57:48;;;;;;;6.78;5.07;;;2.80;99.90;;;;;;5131806;27;20121;-69
2022/03/31 07:00:14;;;;;;;6.63;5.25;;;2.80;99.90;;;;;;5150742;27;20455;-69
2022/03/31 07:02:39;;;;;;;6.03;4.68;;;2.80;99.90;;;;;;5131674;27;20055;-71
2022/03/31 07:05:05;;;;;;;6.63;4.75;;;2.80;99.90;;;;;;5152075;27;20038;-70
2022/03/31 07:07:31;;;;;;;5.60;4.47;;;2.80;99.90;;;;;;5114087;27;20059;-71
2022/03/31 07:09:59;;;;;;;6.05;4.57;;;2.80;99.90;;;;;;5152046;27;20053;-70
2022/03/31 07:12:25;;;;;;;6.80;4.82;;;3.10;99.90;;;;;;5151705;27;20503;-71
2022/03/31 07:14:50;;;;;;;6.32;4.85;;;2.90;99.90;;;;;;5129691;27;20055;-71
2022/03/31 07:17:17;;;;;;;6.00;4.88;;;2.90;99.90;;;;;;5124568;27;20051;-70
2022/03/31 07:19:43;;;;;;;6.88;5.82;;;2.90;99.90;;;;;;5108872;28;20098;-72
2022/03/31 07:22:08;;;;;;;7.40;5.93;;;2.90;99.90;;;;;;5109451;28;20055;-70
2022/03/31 07:24:34;;;;;;;8.45;6.03;;;3.30;99.90;;;;;;5109336;28;20051;-69
2022/03/31 07:27:01;;;;;;;7.75;6.05;;;2.90;99.90;;;;;;5119893;27;20118;-72
2022/03/31 07:29:27;;;;;;;7.97;6.25;;;2.90;99.90;;;;;;5131166;27;20039;-70
2022/03/31 07:31:53;;;;;;;8.50;6.05;;;2.90;99.90;;;;;;5130510;27;20046;-69
2022/03/31 07:34:18;;;;;;;8.75;6.45;;;2.90;99.90;;;;;;5130481;27;20039;-71
2022/03/31 07:36:44;;;;;;;7.63;6.32;;;2.90;99.90;;;;;;5130502;27;20081;-71
2022/03/31 07:39:09;;;;;;;8.20;6.85;;;2.90;99.90;;;;;;5115710;27;20059;-72
2022/03/31 07:41:35;;;;;;;9.45;7.13;;;2.90;99.90;;;;;;5110955;28;20465;-69
2022/03/31 07:44:01;;;;;;;8.57;6.93;;;2.90;99.90;;;;;;5110054;28;20044;-71
2022/03/31 07:46:32;;;;;;;8.38;6.72;;;3.70;99.90;;;;;;5110114;28;20395;-71
2022/03/31 07:48:58;;;;;;;8.38;6.63;;;2.90;99.90;;;;;;5109711;28;20127;-73
2022/03/31 07:51:25;;;;;;;8.60;6.68;;;2.90;99.90;;;;;;5111021;28;20054;-72
2022/03/31 07:53:51;;;;;;;7.82;6.20;;;3.00;99.90;;;;;;5109885;28;20055;-71
2022/03/31 07:56:16;;;;;;;8.73;6.38;;;3.00;99.90;;;;;;5108541;28;20056;-73
2022/03/31 07:58:42;;;;;;;7.13;6.07;;;3.00;99.90;;;;;;5108396;28;20048;-72
2022/03/31 08:01:08;;;;;;;8.68;6.85;;;3.00;99.90;;;;;;5111574;28;20090;-72
2022/03/31 08:03:33;;;;;;;9.38;6.65;;;3.00;99.90;;;;;;5121616;28;20135;-72
2022/03/31 08:05:59;;;;;;;9.93;6.75;;;3.00;99.90;;;;;;5129112;28;20042;-72
2022/03/31 08:08:25;;;;;;;9.35;7.43;;;3.10;99.90;;;;;;5129357;28;20482;-74
2022/03/31 08:10:51;;;;;;;9.07;6.82;;;3.10;99.90;;;;;;5120515;28;20043;-72
2022/03/31 08:13:26;;;;;;;8.77;6.45;;;3.10;99.90;;;;;;5121611;28;20059;-70
2022/03/31 08:15:56;;;;;;;8.70;6.30;;;3.80;99.90;;;;;;5108327;28;20067;-69
2022/03/31 08:18:33;;;;;;;8.32;6.15;;;3.10;99.90;;;;;;5119631;28;20114;-71
2022/03/31 08:20:59;;;;;;;7.40;5.13;;;3.10;99.90;;;;;;5128477;28;20150;-71
2022/03/31 08:23:26;;;;;;;6.68;5.18;;;3.10;99.90;;;;;;5130292;28;20147;-70
2022/03/31 08:25:52;;;;;;;7.53;6.20;;;3.10;99.90;;;;;;5130207;28;20047;-69
2022/03/31 08:28:18;;;;;;;8.27;5.53;;;3.10;99.90;;;;;;5116227;28;20394;-69
2022/03/31 08:30:44;;;;;;;10.07;6.90;;;3.10;99.90;;;;;;5113882;28;20050;-69
2022/03/31 08:33:11;;;;;;;9.07;6.32;;;3.00;99.90;;;;;;5102785;28;20054;-70
2022/03/31 08:35:37;;;;;;;9.38;6.63;;;3.00;99.90;;;;;;5118885;28;20084;-74
2022/03/31 08:38:02;;;;;;;9.32;6.05;;;3.00;99.90;;;;;;5119899;28;20043;-78
2022/03/31 08:40:28;;;;;;;8.98;6.10;;;3.00;99.90;;;;;;5108480;28;20051;-79
2022/03/31 08:42:54;;;;;;;7.53;6.10;;;3.00;99.90;;;;;;5109243;28;20044;-73
2022/03/31 08:45:21;;;;;;;8.70;6.60;;;3.00;99.90;;;;;;5109485;28;20047;-77
2022/03/31 08:47:49;;;;;;;8.73;6.80;;;3.00;99.90;;;;;;5109449;28;20039;-77
2022/03/31 08:50:16;;;;;;;9.05;6.00;;;2.90;99.90;;;;;;5094828;28;20086;-74
2022/03/31 08:52:42;;;;;;;9.45;6.57;;;3.10;99.90;;;;;;5112777;28;20075;-75
2022/03/31 08:55:09;;;;;;;8.52;6.40;;;3.30;99.90;;;;;;5113401;28;20055;-74
2022/03/31 08:57:47;;;;;;;9.60;7.05;;;2.80;99.90;;;;;;5112210;28;20100;-76
2022/03/31 09:00:14;;;;;;;10.25;6.80;;;2.80;99.90;;;;;;5112257;28;20383;-75
2022/03/31 09:02:40;;;;;;;9.05;6.68;;;2.80;99.90;;;;;;5113465;28;20205;-74
2022/03/31 09:05:09;;;;;;;8.10;6.18;;;2.70;99.90;;;;;;5111960;28;20047;-77
2022/03/31 09:07:34;;;;;;;10.20;7.47;;;2.70;99.90;;;;;;5129054;27;20054;-70
2022/03/31 09:10:00;;;;;;;11.30;7.00;;;2.60;99.90;;;;;;5131227;27;20390;-72
2022/03/31 09:12:38;;;;;;;10.18;7.38;;;2.60;99.90;;;;;;5114966;27;20039;-73
2022/03/31 09:15:09;;;;;;;9.07;7.18;;;2.60;99.90;;;;;;5132993;27;20111;-73
2022/03/31 09:17:35;;;;;;;9.45;6.82;;;2.60;99.90;;;;;;5135374;27;20058;-71
2022/03/31 09:20:01;;;;;;;10.43;6.97;;;2.50;99.90;;;;;;5134964;27;20508;-75
2022/03/31 09:22:26;;;;;;;11.27;7.93;;;2.50;99.90;;;;;;5135014;27;20046;-77
2022/03/31 09:25:03;;;;;;;10.88;7.68;;;2.50;99.90;;;;;;5154031;27;20059;-69
2022/03/31 09:27:28;;;;;;;14.05;8.50;;;2.40;99.90;;;;;;5133846;27;20058;-75
2022/03/31 09:30:04;;;;;;;11.90;8.38;;;2.30;99.90;;;;;;5152241;27;20482;-76
2022/03/31 09:32:30;;;;;;;13.20;8.82;;;2.30;99.90;;;;;;5153868;27;20034;-72
2022/03/31 09:35:05;;;;;;;12.98;9.02;;;2.30;99.90;;;;;;5153824;27;20504;-74
2022/03/31 09:37:31;;;;;;;;;;;2.20;99.90;;;;;;5152794;27;20043;-71
2022/03/31 09:39:56;;;;;;;15.65;9.18;;;2.20;99.90;;;;;;5154050;27;19930;-71
2022/03/31 09:42:22;;;;;;;12.77;8.95;;;2.10;99.90;;;;;;5153844;27;20118;-70
2022/03/31 09:44:59;;;;;;;11.32;7.90;;;2.00;99.90;;;;;;5153732;27;20051;-76
2022/03/31 09:47:26;;;;;;;13.82;8.90;;;3.00;99.90;;;;;;5152139;27;20042;-70
2022/03/31 09:49:54;;;;;;;9.80;6.78;;;1.90;99.90;;;;;;5132826;27;20055;-72
2022/03/31 09:52:20;;;;;;;9.25;6.68;;;1.80;99.90;;;;;;5114176;27;20061;-74
2022/03/31 09:54:48;;;;;;;9.80;6.85;;;1.80;99.90;;;;;;5132615;27;20043;-72
2022/03/31 09:57:17;;;;;;;10.48;6.80;;;1.70;99.90;;;;;;5132865;27;20047;-70
2022/03/31 09:59:49;;;;;;;8.73;6.15;;;1.70;99.90;;;;;;5132382;27;20043;-71
2022/03/31 10:02:15;;;;;;;8.93;6.35;;;1.60;99.90;;;;;;5114400;27;20079;-71
2022/03/31 10:04:46;;;;;;;9.02;6.10;;;1.60;99.90;;;;;;5132738;27;20529;-70
2022/03/31 10:07:12;;;;;;;7.90;6.00;;;1.50;99.90;;;;;;5113645;27;20135;-70
2022/03/31 10:09:41;;;;;;;8.95;5.38;;;1.50;99.90;;;;;;5135770;27;20042;-70
2022/03/31 10:12:21;;;;;;;6.50;4.63;;;1.50;99.90;;;;;;5151595;27;20404;-72
2022/03/31 10:14:54;;;;;;;13.85;5.50;;;1.50;99.90;;;;;;5151254;27;20082;-72
2022/03/31 10:17:26;;;;;;;8.77;6.00;;;1.40;99.90;;;;;;5148041;27;20051;-71
2022/03/31 10:19:52;;;;;;;8.10;5.70;;;1.40;99.90;;;;;;5144482;27;20786;-72
2022/03/31 10:25:12;;;;;;;8.68;6.35;;;1.40;99.90;;;;;;5149142;27;20042;-73
2022/03/31 10:27:45;;;;;;;9.30;5.85;;;1.40;99.90;;;;;;5149164;27;20042;-70
2022/03/31 10:30:25;;;;;;;9.52;6.30;;;1.40;99.90;;;;;;5146718;27;20043;-68
2022/03/31 10:33:05;;;;;;;9.63;6.07;;;1.40;99.90;;;;;;5126227;27;20066;-70
2022/03/31 10:35:41;;;;;;;8.52;5.65;;;1.40;99.90;;;;;;5129742;27;20058;-70
2022/03/31 10:38:23;;;;;;;9.93;5.80;;;1.30;99.90;;;;;;5132637;27;20054;-73
2022/03/31 10:40:59;;;;;;;8.43;5.65;;;1.40;99.90;;;;;;5130864;27;20054;-71
2022/03/31 10:43:31;;;;;;;7.68;5.07;;;1.40;99.90;;;;;;5131876;27;20047;-74
2022/03/31 10:46:00;;;;;;;7.72;5.13;;;1.40;99.90;;;;;;5134992;27;20397;-70
2022/03/31 10:48:28;;;;;;;8.00;5.47;;;1.40;99.90;;;;;;5152848;27;20050;-74
2022/03/31 10:51:08;;;;;;;7.90;5.18;;;1.30;99.90;;;;;;5113600;27;20051;-70
2022/03/31 10:53:36;;;;;;;6.80;4.88;;;1.90;99.90;;;;;;5132889;27;20039;-70
2022/03/31 10:56:14;;;;;;;6.80;5.10;;;1.30;99.90;;;;;;5140543;27;20037;-72
2022/03/31 10:58:41;;;;;;;7.70;4.93;;;1.30;99.90;;;;;;5130666;27;20054;-74
2022/03/31 11:01:07;;;;;;;9.32;4.43;;;1.40;99.90;;;;;;5152335;27;20031;-69
2022/03/31 11:03:32;;;;;;;6.90;5.03;;;1.40;99.90;;;;;;5143198;27;20095;-70
2022/03/31 11:06:03;;;;;;;6.13;4.00;;;1.30;99.90;;;;;;5130355;27;20042;-71
2022/03/31 11:08:29;;;;;;;6.10;4.00;;;1.40;99.90;;;;;;5126619;27;20063;-71
2022/03/31 11:10:55;;;;;;;10.00;4.25;;;1.40;99.90;;;;;;5132571;27;20049;-71
2022/03/31 11:13:32;;;;;;;6.30;4.30;;;1.40;99.90;;;;;;5133100;27;20408;-71
2022/03/31 11:15:58;;;;;;;6.15;4.25;;;1.40;99.90;;;;;;5130878;27;20058;-71
2022/03/31 11:18:24;;;;;;;5.82;4.47;;;1.40;99.90;;;;;;5129143;27;20397;-71
2022/03/31 11:21:01;;;;;;;5.13;3.38;;;1.40;99.90;;;;;;5113100;27;20062;-72
2022/03/31 11:23:29;;;;;;;6.15;4.13;;;1.40;99.90;;;;;;5147223;27;20118;-72
2022/03/31 11:25:55;;;;;;;7.63;4.07;;;1.40;99.90;;;;;;5145997;27;20046;-69
2022/03/31 11:28:21;;;;;;;5.63;4.07;;;1.30;99.90;;;;;;5126524;27;20117;-68
2022/03/31 11:30:48;;;;;;;6.50;4.10;;;1.30;99.90;;;;;;5141491;27;20031;-69
2022/03/31 11:33:15;;;;;;;6.13;4.28;;;1.30;99.90;;;;;;5149200;27;20141;-73
2022/03/31 11:35:42;;;;;;;5.65;4.10;;;1.30;99.90;;;;;;5130213;27;20051;-71
2022/03/31 11:38:17;;;;;;;5.15;3.80;;;1.20;99.90;;;;;;5132426;27;20065;-69
2022/03/31 11:40:46;;;;;;;5.50;4.03;;;1.20;99.90;;;;;;5133416;27;20058;-69
2022/03/31 11:43:14;;;;;;;5.97;3.78;;;1.20;99.90;;;;;;5140623;27;20046;-68
2022/03/31 11:45:51;;;;;;;5.47;3.90;;;1.20;99.90;;;;;;5128453;27;20055;-70
2022/03/31 11:48:20;;;;;;;5.85;3.70;;;1.10;99.90;;;;;;5146567;27;20100;-76
2022/03/31 11:50:56;;;;;;;5.90;4.15;;;1.10;99.90;;;;;;5143847;27;20042;-68
2022/03/31 11:53:27;;;;;;;5.80;3.95;;;1.10;99.90;;;;;;5129427;27;20062;-68
2022/03/31 11:55:58;;;;;;;8.52;4.18;;;1.10;99.90;;;;;;5141753;27;20154;-69
2022/03/31 11:58:24;;;;;;;7.30;3.90;;;1.10;99.90;;;;;;5131134;27;20386;-69
2022/03/31 12:00:51;;;;;;;5.43;3.67;;;1.00;99.90;;;;;;5148007;27;20086;-68
2022/03/31 12:03:17;;;;;;;7.55;3.78;;;1.00;99.90;;;;;;5132393;27;20047;-68
2022/03/31 12:05:53;;;;;;;5.82;4.57;;;1.00;99.90;;;;;;5150854;27;20122;-69
2022/03/31 12:08:19;;;;;;;6.00;4.22;;;0.90;99.90;;;;;;5139667;27;20390;-68
2022/03/31 12:10:50;;;;;;;6.13;4.07;;;0.90;99.90;;;;;;5142886;27;20062;-73
2022/03/31 12:13:15;;;;;;;6.15;4.72;;;0.90;99.90;;;;;;5132194;27;20061;-75
2022/03/31 12:15:41;;;;;;;6.05;4.40;;;0.90;99.90;;;;;;5129656;27;21065;-69
2022/03/31 12:18:11;;;;;;;6.88;4.50;;;1.10;99.90;;;;;;5125288;27;20506;-69
2022/03/31 12:20:37;;;;;;;7.18;3.85;;;0.80;99.90;;;;;;5131165;27;20493;-72
2022/03/31 12:23:16;;;;;;;7.38;5.22;;;0.80;99.90;;;;;;5132516;27;20047;-69
2022/03/31 12:25:42;;;;;;;7.22;4.68;;;0.80;99.90;;;;;;5134899;27;20051;-71
2022/03/31 12:28:11;;;;;;;7.25;4.32;;;0.80;99.90;;;;;;5154291;27;20049;-71
2022/03/31 12:30:45;;;;;;;6.55;4.13;;;0.90;99.90;;;;;;5135547;27;20050;-71
2022/03/31 12:33:25;;;;;;;6.60;4.30;;;0.90;99.90;;;;;;5115986;27;20043;-71
2022/03/31 12:36:03;;;;;;;7.00;4.70;;;0.90;99.90;;;;;;5134448;27;20031;-70
2022/03/31 12:38:36;;;;;;;9.13;4.72;;;0.90;99.90;;;;;;5155305;27;20096;-71
2022/03/31 12:41:03;;;;;;;6.40;4.28;;;0.90;99.90;;;;;;5154783;27;20042;-70
2022/03/31 12:43:29;;;;;;;7.63;5.10;;;0.80;99.90;;;;;;5116919;27;20039;-70
2022/03/31 12:45:55;;;;;;;6.93;4.70;;;0.80;99.90;;;;;;5133940;27;20075;-70
2022/03/31 12:48:21;;;;;;;8.80;5.40;;;0.80;99.90;;;;;;5134615;27;20043;-71
2022/03/31 12:50:46;;;;;;;7.97;5.78;;;0.90;99.90;;;;;;5144704;27;20081;-71
2022/03/31 12:53:12;;;;;;;8.32;5.50;;;0.80;99.90;;;;;;5146335;27;20051;-74
2022/03/31 12:55:41;;;;;;;8.32;5.68;;;0.90;99.90;;;;;;5150925;27;20038;-73
2022/03/31 12:58:08;;;;;;;9.13;6.45;;;0.80;99.90;;;;;;5147460;27;20883;-74
2022/03/31 13:00:35;;;;;;;8.48;5.97;;;0.80;99.90;;;;;;5149822;27;20400;-71
2022/03/31 13:03:01;;;;;;;8.77;6.43;;;0.90;99.90;;;;;;5125443;27;20126;-72